sensor_id;sensor_type;location;lat;lon;timestamp;pressure;altitude;pressure_sealevel;temperature;humidity
35888;BME280;21990;42.540;23.496;2023-08-21T00:01:30;93947.78;;;17.37;86.10
35888;BME280;21990;42.540;23.496;2023-08-21T00:03:56;93947.97;;;17.32;87.06
35888;BME280;21990;42.540;23.496;2023-08-21T00:06:22;93948.72;;;17.32;86.74
35888;BME280;21990;42.540;23.496;2023-08-21T00:08:47;93954.22;;;17.23;86.96
35888;BME280;21990;42.540;23.496;2023-08-21T00:11:13;93953.25;;;17.20;88.21
35888;BME280;21990;42.540;23.496;2023-08-21T00:13:38;93949.47;;;17.18;87.44
35888;BME280;21990;42.540;23.496;2023-08-21T00:16:04;93951.94;;;17.21;87.35
35888;BME280;21990;42.540;23.496;2023-08-21T00:18:29;93961.41;;;17.16;87.92
35888;BME280;21990;42.540;23.496;2023-08-21T00:20:55;93962.75;;;17.07;88.79
35888;BME280;21990;42.540;23.496;2023-08-21T00:23:20;93952.84;;;17.01;88.99
35888;BME280;21990;42.540;23.496;2023-08-21T00:25:47;93965.22;;;17.03;88.75
35888;BME280;21990;42.540;23.496;2023-08-21T00:28:13;93950.97;;;16.96;88.40
35888;BME280;21990;42.540;23.496;2023-08-21T00:30:39;93958.53;;;16.93;88.38
35888;BME280;21990;42.540;23.496;2023-08-21T00:33:05;93961.75;;;16.97;87.70
35888;BME280;21990;42.540;23.496;2023-08-21T00:35:33;93964.44;;;16.95;87.81
35888;BME280;21990;42.540;23.496;2023-08-21T00:37:59;93964.59;;;16.90;87.18
35888;BME280;21990;42.540;23.496;2023-08-21T00:40:24;93972.19;;;16.87;88.31
35888;BME280;21990;42.540;23.496;2023-08-21T00:42:50;93963.59;;;16.72;88.69
35888;BME280;21990;42.540;23.496;2023-08-21T00:45:15;93968.13;;;16.68;88.93
35888;BME280;21990;42.540;23.496;2023-08-21T00:47:42;93968.69;;;16.66;88.84
35888;BME280;21990;42.540;23.496;2023-08-21T00:50:08;93973.47;;;16.71;88.79
35888;BME280;21990;42.540;23.496;2023-08-21T00:52:38;93970.25;;;16.75;88.24
35888;BME280;21990;42.540;23.496;2023-08-21T00:55:06;93974.81;;;16.78;88.17
35888;BME280;21990;42.540;23.496;2023-08-21T00:57:33;93974.03;;;16.77;88.09
35888;BME280;21990;42.540;23.496;2023-08-21T01:00:00;93967.78;;;16.79;88.21
35888;BME280;21990;42.540;23.496;2023-08-21T01:02:26;93968.94;;;16.83;88.04
35888;BME280;21990;42.540;23.496;2023-08-21T01:04:51;93976.47;;;16.73;87.75
35888;BME280;21990;42.540;23.496;2023-08-21T01:07:17;93978.38;;;16.71;88.74
35888;BME280;21990;42.540;23.496;2023-08-21T01:09:58;93974.94;;;16.57;89.01
35888;BME280;21990;42.540;23.496;2023-08-21T01:15:10;93977.72;;;16.49;90.55
35888;BME280;21990;42.540;23.496;2023-08-21T01:17:38;93980.72;;;16.44;90.22
35888;BME280;21990;42.540;23.496;2023-08-21T01:20:07;93982.44;;;16.47;91.19
35888;BME280;21990;42.540;23.496;2023-08-21T01:22:41;93983.66;;;16.31;90.75
35888;BME280;21990;42.540;23.496;2023-08-21T01:25:11;93982.03;;;16.43;91.27
35888;BME280;21990;42.540;23.496;2023-08-21T01:27:40;93975.72;;;16.29;91.10
35888;BME280;21990;42.540;23.496;2023-08-21T01:30:07;93981.81;;;16.33;90.65
35888;BME280;21990;42.540;23.496;2023-08-21T01:35:20;93984.44;;;16.31;89.96
35888;BME280;21990;42.540;23.496;2023-08-21T01:37:46;93975.34;;;16.33;90.15
35888;BME280;21990;42.540;23.496;2023-08-21T01:40:12;93977.97;;;16.31;90.09
35888;BME280;21990;42.540;23.496;2023-08-21T01:42:37;93980.44;;;16.27;89.85
35888;BME280;21990;42.540;23.496;2023-08-21T01:45:03;93975.72;;;16.29;89.45
35888;BME280;21990;42.540;23.496;2023-08-21T01:47:29;93975.34;;;16.33;89.18
35888;BME280;21990;42.540;23.496;2023-08-21T01:49:54;93983.47;;;16.29;89.31
35888;BME280;21990;42.540;23.496;2023-08-21T01:52:20;93978.88;;;16.18;89.24
35888;BME280;21990;42.540;23.496;2023-08-21T01:54:46;93977.00;;;16.21;89.31
35888;BME280;21990;42.540;23.496;2023-08-21T01:57:13;93971.50;;;16.23;88.98
35888;BME280;21990;42.540;23.496;2023-08-21T01:59:39;93977.00;;;16.21;89.21
35888;BME280;21990;42.540;23.496;2023-08-21T02:02:04;93980.25;;;16.25;89.37
35888;BME280;21990;42.540;23.496;2023-08-21T02:04:30;93975.31;;;16.25;88.28
35888;BME280;21990;42.540;23.496;2023-08-21T02:06:55;93974.09;;;16.13;89.06
35888;BME280;21990;42.540;23.496;2023-08-21T02:09:21;93975.22;;;16.10;89.49
35888;BME280;21990;42.540;23.496;2023-08-21T02:11:46;93985.47;;;16.13;88.98
35888;BME280;21990;42.540;23.496;2023-08-21T02:14:12;93973.44;;;15.99;89.51
35888;BME280;21990;42.540;23.496;2023-08-21T02:16:37;93977.34;;;15.89;89.71
35888;BME280;21990;42.540;23.496;2023-08-21T02:19:03;93962.44;;;15.96;89.38
35888;BME280;21990;42.540;23.496;2023-08-21T02:21:28;93969.88;;;15.99;89.14
35888;BME280;21990;42.540;23.496;2023-08-21T02:23:54;93967.97;;;16.01;88.71
35888;BME280;21990;42.540;23.496;2023-08-21T02:26:19;93963.25;;;16.04;89.25
35888;BME280;21990;42.540;23.496;2023-08-21T02:28:45;93971.59;;;16.02;89.21
35888;BME280;21990;42.540;23.496;2023-08-21T02:31:12;93967.25;;;15.80;89.53
35888;BME280;21990;42.540;23.496;2023-08-21T02:33:38;93968.78;;;15.81;89.43
35888;BME280;21990;42.540;23.496;2023-08-21T02:36:04;93961.97;;;15.84;89.38
35888;BME280;21990;42.540;23.496;2023-08-21T02:38:29;93960.63;;;15.78;89.98
35888;BME280;21990;42.540;23.496;2023-08-21T02:40:55;93956.47;;;15.79;89.82
35888;BME280;21990;42.540;23.496;2023-08-21T02:43:20;93962.91;;;15.79;89.63
35888;BME280;21990;42.540;23.496;2023-08-21T02:45:46;93968.94;;;15.76;90.35
35888;BME280;21990;42.540;23.496;2023-08-21T02:48:11;93967.41;;;15.75;89.83
35888;BME280;21990;42.540;23.496;2023-08-21T02:50:37;93962.50;;;15.75;89.47
35888;BME280;21990;42.540;23.496;2023-08-21T02:53:03;93967.41;;;15.75;89.89
35888;BME280;21990;42.540;23.496;2023-08-21T02:55:28;93961.22;;;15.55;91.05
35888;BME280;21990;42.540;23.496;2023-08-21T02:57:54;93965.66;;;15.64;90.34
35888;BME280;21990;42.540;23.496;2023-08-21T03:00:19;93970.34;;;15.61;90.76
35888;BME280;21990;42.540;23.496;2023-08-21T03:02:45;93976.66;;;15.68;90.25
35888;BME280;21990;42.540;23.496;2023-08-21T03:05:11;93971.81;;;15.55;90.46
35888;BME280;21990;42.540;23.496;2023-08-21T03:07:37;93967.28;;;15.39;90.52
35888;BME280;21990;42.540;23.496;2023-08-21T03:10:02;93966.03;;;15.47;90.45
35888;BME280;21990;42.540;23.496;2023-08-21T03:12:28;93972.06;;;15.44;90.53
35888;BME280;21990;42.540;23.496;2023-08-21T03:14:54;93981.22;;;15.50;89.79
35888;BME280;21990;42.540;23.496;2023-08-21T03:17:23;93975.78;;;15.52;89.87
35888;BME280;21990;42.540;23.496;2023-08-21T03:19:48;93978.03;;;15.53;89.84
35888;BME280;21990;42.540;23.496;2023-08-21T03:22:14;93974.78;;;15.49;89.27
35888;BME280;21990;42.540;23.496;2023-08-21T03:24:39;93977.53;;;15.42;90.03
35888;BME280;21990;42.540;23.496;2023-08-21T03:27:05;93978.84;;;15.41;89.82
35888;BME280;21990;42.540;23.496;2023-08-21T03:29:30;93981.69;;;15.41;89.48
35888;BME280;21990;42.540;23.496;2023-08-21T03:31:57;93983.03;;;15.40;89.42
35888;BME280;21990;42.540;23.496;2023-08-21T03:34:23;93983.91;;;15.35;90.39
35888;BME280;21990;42.540;23.496;2023-08-21T03:36:48;93989.06;;;15.36;89.91
35888;BME280;21990;42.540;23.496;2023-08-21T03:39:14;93981.69;;;15.41;90.41
35888;BME280;21990;42.540;23.496;2023-08-21T03:41:40;93980.88;;;15.33;90.28
35888;BME280;21990;42.540;23.496;2023-08-21T03:44:06;93987.66;;;15.30;90.94
35888;BME280;21990;42.540;23.496;2023-08-21T03:46:31;93973.25;;;15.28;90.38
35888;BME280;21990;42.540;23.496;2023-08-21T03:48:57;93975.53;;;15.29;90.17
35888;BME280;21990;42.540;23.496;2023-08-21T03:51:22;93986.88;;;15.29;90.11
35888;BME280;21990;42.540;23.496;2023-08-21T03:53:49;93987.38;;;15.20;91.13
35888;BME280;21990;42.540;23.496;2023-08-21T03:56:14;93989.47;;;15.19;91.12
35888;BME280;21990;42.540;23.496;2023-08-21T03:58:40;93982.59;;;15.15;91.09
35888;BME280;21990;42.540;23.496;2023-08-21T04:01:05;93988.84;;;15.13;91.46
35888;BME280;21990;42.540;23.496;2023-08-21T04:03:31;93994.53;;;15.13;91.67
35888;BME280;21990;42.540;23.496;2023-08-21T04:05:56;93996.75;;;14.94;92.01
35888;BME280;21990;42.540;23.496;2023-08-21T04:08:25;93994.16;;;14.96;92.33
35888;BME280;21990;42.540;23.496;2023-08-21T04:10:50;94002.22;;;14.92;93.14
35888;BME280;21990;42.540;23.496;2023-08-21T04:13:18;93997.59;;;15.02;92.69
35888;BME280;21990;42.540;23.496;2023-08-21T04:15:48;93995.06;;;15.12;92.34
35888;BME280;21990;42.540;23.496;2023-08-21T04:18:14;93991.13;;;15.15;91.85
35888;BME280;21990;42.540;23.496;2023-08-21T04:20:39;94004.03;;;15.03;92.79
35888;BME280;21990;42.540;23.496;2023-08-21T04:23:05;93994.84;;;15.10;93.42
35888;BME280;21990;42.540;23.496;2023-08-21T04:25:31;94002.69;;;15.17;92.86
35888;BME280;21990;42.540;23.496;2023-08-21T04:27:56;93996.31;;;15.24;92.72
35888;BME280;21990;42.540;23.496;2023-08-21T04:30:22;94000.41;;;15.15;93.18
35888;BME280;21990;42.540;23.496;2023-08-21T04:32:48;94008.28;;;15.30;93.20
35888;BME280;21990;42.540;23.496;2023-08-21T04:35:13;94003.78;;;15.35;93.29
35888;BME280;21990;42.540;23.496;2023-08-21T04:37:45;94005.59;;;15.45;93.53
35888;BME280;21990;42.540;23.496;2023-08-21T04:40:11;94003.31;;;15.44;93.49
35888;BME280;21990;42.540;23.496;2023-08-21T04:42:37;94003.19;;;15.49;94.26
35888;BME280;21990;42.540;23.496;2023-08-21T04:45:03;94004.06;;;15.65;93.63
35888;BME280;21990;42.540;23.496;2023-08-21T04:47:30;94001.59;;;15.61;93.78
35888;BME280;21990;42.540;23.496;2023-08-21T04:49:56;94001.72;;;15.77;93.58
35888;BME280;21990;42.540;23.496;2023-08-21T04:52:23;94004.06;;;15.86;93.50
35888;BME280;21990;42.540;23.496;2023-08-21T04:54:53;94007.31;;;15.90;93.52
35888;BME280;21990;42.540;23.496;2023-08-21T04:57:19;93997.06;;;15.87;93.70
35888;BME280;21990;42.540;23.496;2023-08-21T04:59:47;94006.06;;;15.98;92.93
35888;BME280;21990;42.540;23.496;2023-08-21T05:02:12;94000.56;;;16.00;92.06
35888;BME280;21990;42.540;23.496;2023-08-21T05:04:38;94001.38;;;16.08;92.19
35888;BME280;21990;42.540;23.496;2023-08-21T05:07:04;94003.34;;;16.21;91.64
35888;BME280;21990;42.540;23.496;2023-08-21T05:09:31;94005.09;;;16.32;92.03
35888;BME280;21990;42.540;23.496;2023-08-21T05:12:07;94005.53;;;16.43;92.84
35888;BME280;21990;42.540;23.496;2023-08-21T05:14:33;94010.25;;;16.69;92.10
35888;BME280;21990;42.540;23.496;2023-08-21T05:16:58;94011.13;;;16.92;91.17
35888;BME280;21990;42.540;23.496;2023-08-21T05:19:24;94013.28;;;17.30;90.99
35888;BME280;21990;42.540;23.496;2023-08-21T05:21:50;94005.03;;;17.70;90.04
35888;BME280;21990;42.540;23.496;2023-08-21T05:24:15;93997.41;;;17.95;87.83
35888;BME280;21990;42.540;23.496;2023-08-21T05:26:41;94003.75;;;18.48;86.93
35888;BME280;21990;42.540;23.496;2023-08-21T05:29:07;93999.03;;;19.06;84.86
35888;BME280;21990;42.540;23.496;2023-08-21T05:31:32;94009.13;;;19.39;84.08
35888;BME280;21990;42.540;23.496;2023-08-21T05:33:58;94004.47;;;19.84;83.17
35888;BME280;21990;42.540;23.496;2023-08-21T05:36:25;93996.13;;;20.20;81.70
35888;BME280;21990;42.540;23.496;2023-08-21T05:38:50;93995.66;;;20.31;79.38
35888;BME280;21990;42.540;23.496;2023-08-21T05:41:16;93997.69;;;20.56;81.10
35888;BME280;21990;42.540;23.496;2023-08-21T05:43:42;93996.16;;;21.06;76.87
35888;BME280;21990;42.540;23.496;2023-08-21T05:46:08;93993.31;;;21.23;76.23
35888;BME280;21990;42.540;23.496;2023-08-21T05:48:34;93997.19;;;21.45;76.14
35888;BME280;21990;42.540;23.496;2023-08-21T05:51:00;93985.28;;;22.12;74.67
35888;BME280;21990;42.540;23.496;2023-08-21T05:53:25;93992.88;;;22.27;75.90
35888;BME280;21990;42.540;23.496;2023-08-21T05:55:52;93993.88;;;23.25;69.76
35888;BME280;21990;42.540;23.496;2023-08-21T05:58:18;93980.28;;;23.26;70.68
35888;BME280;21990;42.540;23.496;2023-08-21T06:00:44;93979.63;;;23.56;69.94
35888;BME280;21990;42.540;23.496;2023-08-21T06:03:10;93983.50;;;23.80;67.73
35888;BME280;21990;42.540;23.496;2023-08-21T06:05:36;93981.53;;;24.23;67.15
35888;BME280;21990;42.540;23.496;2023-08-21T06:08:02;93977.31;;;24.66;63.87
35888;BME280;21990;42.540;23.496;2023-08-21T06:10:27;93976.41;;;25.06;64.24
35888;BME280;21990;42.540;23.496;2023-08-21T06:12:53;93976.16;;;25.02;65.88
35888;BME280;21990;42.540;23.496;2023-08-21T06:15:18;93976.25;;;25.25;64.94
35888;BME280;21990;42.540;23.496;2023-08-21T06:17:44;93986.72;;;25.75;62.76
35888;BME280;21990;42.540;23.496;2023-08-21T06:20:09;93984.88;;;25.91;61.92
35888;BME280;21990;42.540;23.496;2023-08-21T06:22:35;93981.00;;;25.98;61.00
35888;BME280;21990;42.540;23.496;2023-08-21T06:25:01;93987.41;;;26.08;62.32
35888;BME280;21990;42.540;23.496;2023-08-21T06:27:27;93982.97;;;27.00;59.15
35888;BME280;21990;42.540;23.496;2023-08-21T06:29:53;93985.50;;;26.82;60.65
35888;BME280;21990;42.540;23.496;2023-08-21T06:32:18;93991.66;;;27.00;60.17
35888;BME280;21990;42.540;23.496;2023-08-21T06:34:44;93985.09;;;27.11;57.25
35888;BME280;21990;42.540;23.496;2023-08-21T06:37:09;93981.03;;;27.53;57.24
35888;BME280;21990;42.540;23.496;2023-08-21T06:39:35;93976.09;;;27.81;56.64
35888;BME280;21990;42.540;23.496;2023-08-21T06:42:01;93980.50;;;28.21;55.70
35888;BME280;21990;42.540;23.496;2023-08-21T06:44:27;93967.09;;;28.14;55.46
35888;BME280;21990;42.540;23.496;2023-08-21T06:46:52;93980.94;;;28.29;52.56
35888;BME280;21990;42.540;23.496;2023-08-21T06:49:18;93979.63;;;28.98;55.79
35888;BME280;21990;42.540;23.496;2023-08-21T06:51:44;93978.75;;;29.52;53.79
35888;BME280;21990;42.540;23.496;2023-08-21T06:54:09;93973.94;;;30.02;52.31
35888;BME280;21990;42.540;23.496;2023-08-21T06:56:35;93976.06;;;30.46;51.66
35888;BME280;21990;42.540;23.496;2023-08-21T06:59:00;93971.44;;;30.41;46.88
35888;BME280;21990;42.540;23.496;2023-08-21T07:01:27;93966.59;;;30.61;48.95
35888;BME280;21990;42.540;23.496;2023-08-21T07:03:53;93968.25;;;30.67;50.88
35888;BME280;21990;42.540;23.496;2023-08-21T07:06:19;93964.66;;;30.84;47.97
35888;BME280;21990;42.540;23.496;2023-08-21T07:08:45;93964.91;;;31.05;46.79
35888;BME280;21990;42.540;23.496;2023-08-21T07:11:10;93964.69;;;30.68;47.95
35888;BME280;21990;42.540;23.496;2023-08-21T07:13:38;93959.63;;;31.18;50.54
35888;BME280;21990;42.540;23.496;2023-08-21T07:16:04;93956.25;;;31.41;50.30
35888;BME280;21990;42.540;23.496;2023-08-21T07:18:34;93964.38;;;31.78;48.21
35888;BME280;21990;42.540;23.496;2023-08-21T07:21:01;93958.22;;;32.05;45.43
35888;BME280;21990;42.540;23.496;2023-08-21T07:23:26;93953.00;;;32.39;47.22
35888;BME280;21990;42.540;23.496;2023-08-21T07:25:52;93952.00;;;32.70;47.89
35888;BME280;21990;42.540;23.496;2023-08-21T07:28:18;93952.75;;;32.70;46.55
35888;BME280;21990;42.540;23.496;2023-08-21T07:30:43;93948.31;;;32.89;48.41
35888;BME280;21990;42.540;23.496;2023-08-21T07:33:09;93947.19;;;32.98;48.62
35888;BME280;21990;42.540;23.496;2023-08-21T07:35:35;93942.41;;;33.07;46.34
35888;BME280;21990;42.540;23.496;2023-08-21T07:38:01;93940.75;;;33.02;45.70
35888;BME280;21990;42.540;23.496;2023-08-21T07:40:27;93937.84;;;32.82;45.90
35888;BME280;21990;42.540;23.496;2023-08-21T07:42:52;93937.03;;;32.79;43.95
35888;BME280;21990;42.540;23.496;2023-08-21T07:45:18;93936.13;;;32.94;43.24
35888;BME280;21990;42.540;23.496;2023-08-21T07:47:43;93936.13;;;32.94;43.98
35888;BME280;21990;42.540;23.496;2023-08-21T07:50:09;93931.72;;;33.13;40.26
35888;BME280;21990;42.540;23.496;2023-08-21T07:52:35;93939.25;;;33.01;38.58
35888;BME280;21990;42.540;23.496;2023-08-21T07:55:02;93930.34;;;33.16;40.65
35888;BME280;21990;42.540;23.496;2023-08-21T07:57:28;93928.47;;;33.05;42.17
35888;BME280;21990;42.540;23.496;2023-08-21T07:59:55;93938.50;;;33.00;40.86
35888;BME280;21990;42.540;23.496;2023-08-21T08:02:20;93936.88;;;33.15;40.89
35888;BME280;21990;42.540;23.496;2023-08-21T08:04:46;93932.66;;;33.20;38.88
35888;BME280;21990;42.540;23.496;2023-08-21T08:07:12;93928.59;;;33.29;41.41
35888;BME280;21990;42.540;23.496;2023-08-21T08:09:38;93921.88;;;33.24;38.54
35888;BME280;21990;42.540;23.496;2023-08-21T08:12:05;93924.59;;;33.18;40.36
35888;BME280;21990;42.540;23.496;2023-08-21T08:14:31;93924.47;;;33.14;39.70
35888;BME280;21990;42.540;23.496;2023-08-21T08:16:56;93922.72;;;33.07;39.51
35888;BME280;21990;42.540;23.496;2023-08-21T08:19:22;93934.47;;;33.09;37.85
35888;BME280;21990;42.540;23.496;2023-08-21T08:21:47;93927.06;;;33.06;40.34
35888;BME280;21990;42.540;23.496;2023-08-21T08:24:13;93925.63;;;33.07;39.16
35888;BME280;21990;42.540;23.496;2023-08-21T08:26:38;93928.13;;;32.95;34.63
35888;BME280;21990;42.540;23.496;2023-08-21T08:29:04;93931.63;;;32.52;34.21
35888;BME280;21990;42.540;23.496;2023-08-21T08:31:33;93936.25;;;32.59;34.73
35888;BME280;21990;42.540;23.496;2023-08-21T08:33:58;93931.25;;;32.62;36.38
35888;BME280;21990;42.540;23.496;2023-08-21T08:36:24;93930.56;;;32.43;33.90
35888;BME280;21990;42.540;23.496;2023-08-21T08:38:49;93924.16;;;32.10;35.75
35888;BME280;21990;42.540;23.496;2023-08-21T08:41:30;93921.16;;;32.08;35.38
35888;BME280;21990;42.540;23.496;2023-08-21T08:43:57;93927.63;;;32.06;33.95
35888;BME280;21990;42.540;23.496;2023-08-21T08:46:27;93915.78;;;32.20;36.23
35888;BME280;21990;42.540;23.496;2023-08-21T08:48:54;93916.44;;;32.18;36.41
35888;BME280;21990;42.540;23.496;2023-08-21T08:51:20;93903.34;;;32.37;37.66
35888;BME280;21990;42.540;23.496;2023-08-21T08:53:47;93903.78;;;32.49;36.03
35888;BME280;21990;42.540;23.496;2023-08-21T08:56:13;93900.72;;;32.65;37.79
35888;BME280;21990;42.540;23.496;2023-08-21T08:58:38;93909.41;;;32.82;39.13
35888;BME280;21990;42.540;23.496;2023-08-21T09:01:05;93902.84;;;32.82;35.83
35888;BME280;21990;42.540;23.496;2023-08-21T09:03:31;93900.34;;;32.94;35.54
35888;BME280;21990;42.540;23.496;2023-08-21T09:05:56;93892.81;;;33.09;38.74
35888;BME280;21990;42.540;23.496;2023-08-21T09:08:25;93901.16;;;33.16;38.03
35888;BME280;21990;42.540;23.496;2023-08-21T09:10:51;93904.69;;;32.93;33.07
35888;BME280;21990;42.540;23.496;2023-08-21T09:13:18;93906.19;;;32.94;34.55
35888;BME280;21990;42.540;23.496;2023-08-21T09:15:46;93898.41;;;32.81;35.39
35888;BME280;21990;42.540;23.496;2023-08-21T09:18:15;93896.38;;;32.85;36.30
35888;BME280;21990;42.540;23.496;2023-08-21T09:20:42;93894.50;;;32.94;35.52
35888;BME280;21990;42.540;23.496;2023-08-21T09:23:08;93895.63;;;32.85;34.84
35888;BME280;21990;42.540;23.496;2023-08-21T09:25:38;93890.97;;;32.98;37.38
35888;BME280;21990;42.540;23.496;2023-08-21T09:28:06;93890.00;;;33.11;36.53
35888;BME280;21990;42.540;23.496;2023-08-21T09:30:49;93887.44;;;33.21;36.68
35888;BME280;21990;42.540;23.496;2023-08-21T09:33:19;93900.69;;;33.04;32.57
35888;BME280;21990;42.540;23.496;2023-08-21T09:35:46;93887.25;;;32.95;33.32
35888;BME280;21990;42.540;23.496;2023-08-21T09:38:12;93875.44;;;32.91;36.45
35888;BME280;21990;42.540;23.496;2023-08-21T09:40:40;93888.25;;;33.04;33.98
35888;BME280;21990;42.540;23.496;2023-08-21T09:43:08;93879.22;;;33.15;34.84
35888;BME280;21990;42.540;23.496;2023-08-21T09:45:34;93887.16;;;33.13;33.04
35888;BME280;21990;42.540;23.496;2023-08-21T09:48:00;93882.50;;;33.25;33.41
35888;BME280;21990;42.540;23.496;2023-08-21T09:50:26;93878.69;;;33.21;34.07
35888;BME280;21990;42.540;23.496;2023-08-21T09:52:53;93872.03;;;33.18;32.95
35888;BME280;21990;42.540;23.496;2023-08-21T09:55:20;93871.72;;;33.10;33.21
35888;BME280;21990;42.540;23.496;2023-08-21T09:57:48;93875.88;;;33.03;31.94
35888;BME280;21990;42.540;23.496;2023-08-21T10:00:14;93871.34;;;33.00;33.92
35888;BME280;21990;42.540;23.496;2023-08-21T10:03:04;93865.13;;;33.10;33.76
35888;BME280;21990;42.540;23.496;2023-08-21T10:05:31;93861.16;;;33.21;32.07
35888;BME280;21990;42.540;23.496;2023-08-21T10:08:00;93860.22;;;32.94;30.84
35888;BME280;21990;42.540;23.496;2023-08-21T10:10:35;93854.16;;;32.88;32.07
35888;BME280;21990;42.540;23.496;2023-08-21T10:13:03;93866.88;;;32.97;34.52
35888;BME280;21990;42.540;23.496;2023-08-21T10:15:29;93852.69;;;33.09;32.35
35888;BME280;21990;42.540;23.496;2023-08-21T10:17:55;93861.44;;;33.29;37.63
35888;BME280;21990;42.540;23.496;2023-08-21T10:20:24;93854.13;;;33.08;32.00
35888;BME280;21990;42.540;23.496;2023-08-21T10:22:54;93861.00;;;33.17;32.21
35888;BME280;21990;42.540;23.496;2023-08-21T10:25:22;93848.25;;;33.28;33.98
35888;BME280;21990;42.540;23.496;2023-08-21T10:27:53;93839.41;;;33.48;36.86
35888;BME280;21990;42.540;23.496;2023-08-21T10:30:24;93836.25;;;33.63;35.99
35888;BME280;21990;42.540;23.496;2023-08-21T10:32:52;93826.28;;;33.70;34.69
35888;BME280;21990;42.540;23.496;2023-08-21T10:35:20;93828.66;;;33.76;36.42
35888;BME280;21990;42.540;23.496;2023-08-21T10:41:04;93819.63;;;33.68;37.28
35888;BME280;21990;42.540;23.496;2023-08-21T10:43:41;93819.69;;;33.70;32.02
35888;BME280;21990;42.540;23.496;2023-08-21T10:46:12;93823.81;;;33.63;34.68
35888;BME280;21990;42.540;23.496;2023-08-21T10:48:39;93816.25;;;33.77;35.61
35888;BME280;21990;42.540;23.496;2023-08-21T10:51:06;93811.38;;;33.62;31.22
35888;BME280;21990;42.540;23.496;2023-08-21T10:53:33;93816.91;;;33.52;31.78
35888;BME280;21990;42.540;23.496;2023-08-21T10:56:03;93808.41;;;33.60;35.71
35888;BME280;21990;42.540;23.496;2023-08-21T10:58:41;93805.53;;;33.62;35.17
35888;BME280;21990;42.540;23.496;2023-08-21T11:01:07;93809.16;;;33.61;36.54
35888;BME280;21990;42.540;23.496;2023-08-21T11:03:32;93806.38;;;33.65;34.81
35888;BME280;21990;42.540;23.496;2023-08-21T11:06:06;93793.94;;;33.64;36.32
35888;BME280;21990;42.540;23.496;2023-08-21T11:08:33;93808.06;;;33.72;35.09
35888;BME280;21990;42.540;23.496;2023-08-21T11:11:00;93808.91;;;33.53;33.61
35888;BME280;21990;42.540;23.496;2023-08-21T11:13:26;93798.63;;;33.52;36.53
35888;BME280;21990;42.540;23.496;2023-08-21T11:15:59;93809.66;;;33.53;37.61
35888;BME280;21990;42.540;23.496;2023-08-21T11:18:36;93808.31;;;33.58;35.76
35888;BME280;21990;42.540;23.496;2023-08-21T11:21:08;93800.59;;;33.67;34.90
35888;BME280;21990;42.540;23.496;2023-08-21T11:23:38;93805.81;;;33.70;33.75
35888;BME280;21990;42.540;23.496;2023-08-21T11:26:05;93791.19;;;33.70;33.20
35888;BME280;21990;42.540;23.496;2023-08-21T11:28:31;93796.03;;;33.62;37.04
35888;BME280;21990;42.540;23.496;2023-08-21T11:30:57;93796.41;;;33.74;36.03
35888;BME280;21990;42.540;23.496;2023-08-21T11:33:23;93788.59;;;33.80;34.47
35888;BME280;21990;42.540;23.496;2023-08-21T11:35:49;93791.53;;;33.80;34.10
35888;BME280;21990;42.540;23.496;2023-08-21T11:38:17;93793.19;;;33.88;32.44
35888;BME280;21990;42.540;23.496;2023-08-21T11:40:53;93790.31;;;33.66;30.08
35888;BME280;21990;42.540;23.496;2023-08-21T11:43:18;93790.41;;;33.68;34.89
35888;BME280;21990;42.540;23.496;2023-08-21T11:45:47;93788.22;;;33.68;32.38
35888;BME280;21990;42.540;23.496;2023-08-21T11:48:14;93781.34;;;33.60;30.88
35888;BME280;21990;42.540;23.496;2023-08-21T11:50:40;93778.22;;;33.30;30.28
35888;BME280;21990;42.540;23.496;2023-08-21T11:53:06;93776.63;;;33.49;31.76
35888;BME280;21990;42.540;23.496;2023-08-21T11:55:31;93776.09;;;33.32;30.61
35888;BME280;21990;42.540;23.496;2023-08-21T11:57:57;93781.19;;;33.10;29.50
35888;BME280;21990;42.540;23.496;2023-08-21T12:00:29;93784.94;;;33.34;32.02
35888;BME280;21990;42.540;23.496;2023-08-21T12:03:00;93786.06;;;33.47;33.13
35888;BME280;21990;42.540;23.496;2023-08-21T12:05:28;93773.25;;;33.58;33.68
35888;BME280;21990;42.540;23.496;2023-08-21T12:07:54;93780.09;;;33.65;32.67
35888;BME280;21990;42.540;23.496;2023-08-21T12:10:28;93765.38;;;33.63;33.73
35888;BME280;21990;42.540;23.496;2023-08-21T12:12:54;93768.41;;;33.65;32.62
35888;BME280;21990;42.540;23.496;2023-08-21T12:15:20;93771.38;;;33.67;32.76
35888;BME280;21990;42.540;23.496;2023-08-21T12:17:46;93768.19;;;33.82;34.90
35888;BME280;21990;42.540;23.496;2023-08-21T12:20:11;93768.69;;;33.75;29.41
35888;BME280;21990;42.540;23.496;2023-08-21T12:22:38;93760.91;;;33.60;30.34
35888;BME280;21990;42.540;23.496;2023-08-21T12:25:04;93761.34;;;33.50;29.12
35888;BME280;21990;42.540;23.496;2023-08-21T12:27:30;93760.22;;;33.61;31.84
35888;BME280;21990;42.540;23.496;2023-08-21T12:29:56;93755.00;;;33.81;33.03
35888;BME280;21990;42.540;23.496;2023-08-21T12:32:22;93759.41;;;33.82;30.68
35888;BME280;21990;42.540;23.496;2023-08-21T12:34:47;93749.84;;;33.80;34.10
35888;BME280;21990;42.540;23.496;2023-08-21T12:37:13;93761.84;;;33.66;31.76
35888;BME280;21990;42.540;23.496;2023-08-21T12:39:38;93761.63;;;33.36;30.25
35888;BME280;21990;42.540;23.496;2023-08-21T12:42:04;93772.75;;;33.18;32.48
35888;BME280;21990;42.540;23.496;2023-08-21T12:44:30;93761.19;;;33.22;35.73
35888;BME280;21990;42.540;23.496;2023-08-21T12:46:55;93756.88;;;33.04;33.19
35888;BME280;21990;42.540;23.496;2023-08-21T12:49:21;93752.97;;;32.95;36.58
35888;BME280;21990;42.540;23.496;2023-08-21T12:51:46;93741.22;;;32.93;35.05
35888;BME280;21990;42.540;23.496;2023-08-21T12:54:12;93744.88;;;32.93;36.65
35888;BME280;21990;42.540;23.496;2023-08-21T12:56:37;93748.81;;;33.02;37.32